AirNav   Everest Fuels
 
 834 users online  

7AL5 Liberty Field Airport
Pinckard, Alabama, USA

GOING TO PINCKARD?


FAA INFORMATION EFFECTIVE 03 JANUARY 2019

Location

FAA Identifier: 7AL5
Lat/Long: 31-17-23.6500N / 085-32-25.7200W
31-17.394167N / 085-32.428667W
31.2899028 / -85.5404778
(estimated)
Elevation: 363 ft. / 111 m
Time zone: UTC -6 (UTC -5 during Daylight Saving Time)
Zip code: 36350

Airport Operations

Airport use: Private use. Permission required prior to landing
Activation date: 04/2014
Control tower: no
ARTCC: JACKSONVILLE CENTER
FSS: ANNISTON FLIGHT SERVICE STATION
Attendance: UNATNDD
Wind indicator: yes
Segmented circle: no

Airport Communications

WX ASOS at DHN (5 nm E): PHONE 334-983-5999
WX AWOS-3PT at EDN (18 nm W): 118.9 (334-347-3524)

Nearby radio navigation aids

VOR radial/distance  VOR name  Freq  Var
RRSr271/5.6WIREGRASS VORTAC111.6002E
HEYr134/(7.7)HANCHEY VOR110.6003W
OZRr085/9.6CAIRNS VOR/DME111.2003W
EDNr094/(18.6)ENTERPRISE VOR116.6003W
MAIr325/37.0MARIANNA VORTAC114.0000E

 
NDB name  Hdg/Dist  Freq  Var  ID
HANCHEY135/7.822103WHYE .... -.-- .
LOWE115/11.326903WLOR .-.. --- .-.
RUCKR078/14.621203WOZ --- --..
BOLL WEEVIL100/22.835203WBVG -... ...- --.
SOYYA329/29.932902WSMY ... -- -.--
BLAAK258/38.334403WIWJ .. .-- .---

Airport Services

Runway Information

Runway 9/27

Dimensions: 2650 x 60 ft. / 808 x 18 m
Surface: turf, in fair condition
Runway edge markings: RY 9/27 MARKED BY 16 INCH DIAMETER DISKS PLACED 220 FT APART.
RUNWAY 9  RUNWAY 27
Traffic pattern: rightleft
Displaced threshold: no440 ft.
Markings: NSTD, in good conditionNSTD, in good condition
Obstructions: none20 ft. pline, 75 ft. from runway

Airport Ownership and Management from official FAA records

Ownership: Privately-owned
Owner: LIBERTY FIELD L.L.C
642 COUNTY ROAD 563
MIDLAND CITY, AL 36350
Manager: JEFFEREY A. LETEMPT
729 COUNTY ROAD 17
ENTERPRISE, AL 36330
Phone 334-470-6427

Airport Operational Statistics

Aircraft based on the field: 1
Single engine airplanes: 1
    

Instrument Procedures

There are no published instrument procedures at 7AL5.

Some nearby airports with instrument procedures:

KDHN - Dothan Regional Airport (5 nm E)
KHEY - Hanchey Army Heliport (Fort Rucker) (7 nm NW)
KOZR - Cairns Army Airfield (Fort Rucker) (9 nm W)
71J - Ozark-Blackwell Field Airport (9 nm NW)
KLOR - Lowe Army Heliport (Fort Rucker) (12 nm W)
0J6 - Headland Municipal Airport (13 nm E)
KEDN - Enterprise Municipal Airport (18 nm W)
 
Loc | Ops | Rwys | IFR | FBO | Links
Com | Nav | Svcs | Stats | Notes
Aerial photo
No photo
 
Airport distance calculator
Flying to Liberty Field Airport? Find the distance to fly.

From to 7AL5

Sunrise and sunset
Times for 18-Jan-2019
 Local
(UTC-6)
 Zulu
(UTC)
Morning civil twilight06:1612:16
Sunrise06:4212:42
Sunset17:0323:03
Evening civil twilight17:3023:30

Current date and time
Zulu (UTC)  19-Jan-2019 03:07:42
Local (UTC-6)  18-Jan-2019 21:07:42
 
METAR
KDHN 
5nm E 
190253Z AUTO 21004KT 10SM CLR 14/12 A3007 RMK AO2 SLP178 T01440122 58005
KHEY 
7nm NW 
190258Z AUTO 00000KT 10SM SCT023 SCT190 BKN220 15/15 A3002 RMK AO2 LTG DSNT NW SLP167 T01460145 58005
KOZR 
9nm W 
190256Z AUTO 15003KT 10SM FEW026 SCT180 14/13 A3003 RMK AO2 SLP171 T01440131 58005
KLOR 
11nm W 
190258Z AUTO 00000KT 10SM OVC190 13/13 A3003 RMK AO2 LTG DSNT NW SLP152 T01310129 57005
KSXS 
17nm W 
190258Z AUTO 00000KT 10SM BKN190 BKN220 14/13 A3002 RMK AO2 LTG DSNT W SLP167 T01370132 58005
KEDN 
18nm W 
190255Z AUTO 16003KT 10SM SCT018 14/14 A3003 RMK AO2 LTG DSNT E T01430140
TAF
KDHN 
5nm E 
181859Z 1819/1918 VRB05KT P6SM SCT025 OVC040 TEMPO 1819/1823 BKN025 FM182300 21009KT P6SM BKN025 FM190400 18005KT 4SM BR BKN010 OVC025 FM190700 18005KT 2SM BR OVC004 FM191500 18014KT P6SM VCSH OVC050
KOZR 
9nm W 
190000Z 1900/2006 VRB06KT 9000 BR BKN020 QNH3001INS BECMG 1903/1904 VRB06KT 1600 BR BKN002 QNH2996INS BECMG 1914/1915 15012G18KT 9999 NSW SCT045 BKN150 520003 QNH2985INS BECMG 1917/1918 18015G25KT 6000 -SHRA BKN070 520003 QNH2975INS TEMPO 2000/2004 23030G40KT 2400 TSRA OVC015CB BECMG 2004/2005 30020G30KT 8000 -SHRA BKN010 510003 QNH2970INS TX22/1900Z TN15/1908Z LAST NO AMDS AFT 1907 NEXT 2207
NOTAMs
Click for the latest NOTAMs
NOTAMs are issued by the DoD/FAA and will open in a separate window not controlled by AirNav.

 

 
 

Would you like to see your business listed on this page?

 If your business provides an interesting product or service to pilots, flight crews, aircraft, or users of the Liberty Field Airport, you should consider listing it here.  To start the listing process, click on the button below
 
Add a business
 

Other Pages about Liberty Field Airport

Update a link
 
Copyright © AirNav, LLC. All rights reserved. Privacy Policy  Contact